Rolla, Canada
Current Conditions -  °F | °C
As of 10:00 PM on Friday 31 Oct 2014 (Local Time) from CYDQ Reporting Station
Overcast Overcast  
Wind Chill: 34°   Ceiling: 16000
Heat Index: 34°   Visibility: 9mi
Dew Point: 32°   Wind: 0mph
Humidity: 93%   Direction: NA
Pressure: 29.69"   Gusts: NA
Location:  55.9°N, 120.14°W
Report Text: CYDQ 010400Z AUTO 00000KT 9SM OVC160 01/M00 A2969 RMK SLP080
Loading
Personal Weather Stations






























Interactive Weather Map
Tropical Storm Tracking
New forecast layout! Learn more

10-Day Weather Forecast

Advertisements
Track Severe Weather on mobile